• Join FlightAware (Why Join?)
  • Login
  • US Flag 
06:04AM EST


 

Airport Tracker/Info


-or-


 

Live Flight TrackerFlight Track Log ✈ EJA370 ✈ 06-May-2013 ✈ KHOU - KOKC

Flight Track Log - Related Links

Times and Time Zones

All times are in EDT time to prevent confusion due to time zone crossing. See the EJA370 flight status page for this flight to view local times or setup timezone preferences in your user account.

Time Position Orientation Groundspeed Altitude Reporting Facility
EDT Latitude Longitude Course Direction KTS MPH feet Rate Location/Type
08:21PM 29.6381 -95.2719 342° North 153 176 800  Level Houston Center
08:23PM 29.7131 -95.2744 358° North 226 260 8,600 4,080 Climbing Houston Center
08:24PM 29.7769 -95.3150 331° Northwest 265 305 13,400 3,600 Climbing Houston Center
08:25PM 29.8583 -95.3508 339° North 303 349 16,000 2,160 Climbing Houston Center
08:26PM 29.9758 -95.4031 339° North 372 428 17,900 3,060 Climbing Houston Center
08:27PM 29.6549 -95.2825 342° North  Level Estimated
08:27PM 30.0656 -95.4447 338° Northwest 356 410 22,400  Level Houston Center
08:28PM 30.1517 -95.4819 340° North 335 386 25,300 2,340 Climbing Houston Center
08:30PM 30.2789 -95.5424 339° North  Level FlightAware Approximate
08:31PM 30.4369 -95.6083 341° North 377 434 32,200  Level Houston Center
08:32PM 30.5381 -95.6550 338° Northwest 389 448 34,200 1,740 Climbing Houston Center
08:33PM 30.6578 -95.7181 336° Northwest 393 452 35,900 840 Climbing Houston Center
08:34PM 30.7592 -95.7714 336° Northwest 410 472 36,000  Climbing Houston Center
08:35PM 30.8689 -95.8300 335° Northwest 427 491 36,000  Level Houston Center
08:37PM 30.9107 -95.8443 341° North  Level FlightAware Approximate
08:37PM 31.0878 -95.9481 335° Northwest 429 494 36,000  Level Houston Center
08:38PM 31.1489 -95.9764 338° Northwest 426 490 36,000  Level Fort Worth Center
08:39PM 31.2642 -96.0208 342° North 426 490 36,000  Level Fort Worth Center
08:40PM 31.3814 -96.0653 342° North 433 498 36,000  Level Fort Worth Center
08:41PM 31.4989 -96.1122 341° North 433 498 36,000  Level Fort Worth Center
08:42PM 31.6183 -96.1594 341° North 443 510 36,000  Level Fort Worth Center
08:43PM 31.7336 -96.2067 341° North 437 503 36,000  Level Fort Worth Center
08:44PM 31.8489 -96.2517 342° North 437 503 36,000  Level Fort Worth Center
08:45PM 31.9642 -96.2967 342° North 437 503 36,000  Level Fort Worth Center
08:46PM 32.0772 -96.3419 341° North 431 496 36,000  Level Fort Worth Center
08:47PM 32.1944 -96.3847 343° North 431 496 36,000  Level Fort Worth Center
08:50PM 32.5419 -96.5064 344° North 437 503 36,000  Level Fort Worth Center
08:51PM 32.6614 -96.5447 345° North 437 503 36,000  Level Fort Worth Center
08:52PM 32.7764 -96.5833 344° North 437 503 36,000  Level Fort Worth Center
08:53PM 32.8936 -96.6217 345° North 437 503 36,000  Level Fort Worth Center
08:54PM 33.0128 -96.6578 346° North 437 503 36,000  Level Fort Worth Center
08:55PM 33.1236 -96.6992 343° North 442 509 36,000  Level Fort Worth Center
08:56PM 33.2533 -96.7378 346° North 433 498 36,000  Level Fort Worth Center
08:57PM 33.3619 -96.7742 344° North 442 509 36,000 -1,140 Level Fort Worth Center
08:58PM 33.4894 -96.8156 345° North 431 496 33,800 -2,100 Descending Fort Worth Center
08:59PM 33.5939 -96.8500 345° North 431 496 31,800 -1,980 Descending Fort Worth Center
09:01PM 33.8364 -96.9333 344° North 431 496 27,900 -1,920 Descending Fort Worth Center
09:02PM 33.9514 -96.9728 344° North 425 489 26,100 -1,800 Descending Fort Worth Center
09:03PM 34.0622 -97.0122 344° North 419 482 24,300 -1,860 Descending Fort Worth Center
09:05PM 34.2772 -97.0817 345° North 407 468 20,600 -1,860 Descending Fort Worth Center
09:06PM 34.3839 -97.1192 344° North 401 461 18,800 -1,800 Descending Fort Worth Center
09:07PM 34.4861 -97.1542 344° North 396 456 17,100 -1,800 Descending Fort Worth Center
09:08PM 34.5883 -97.1889 344° North 386 444 15,300 -1,860 Descending Fort Worth Center
09:08PM 34.6425 -97.2067 345° North 368 423 14,300 -1,860 Descending Fort Worth Center
09:09PM 34.6886 -97.2217 345° North 376 433 13,500 -1,800 Descending Fort Worth Center
09:10PM 34.7825 -97.2517 345° North 358 412 11,700 -1,860 Descending Fort Worth Center
09:10PM 34.8431 -97.2794 339° North 338 389 10,400 -1,800 Descending Fort Worth Center
09:11PM 34.8658 -97.2894 340° North 343 395 9,900 -1,800 Descending Fort Worth Center
09:11PM 34.9139 -97.3225 331° Northwest 265 305 8,600 -1,920 Descending Fort Worth Center
09:12PM 34.9306 -97.3350 328° Northwest 304 350 8,000 -1,800 Descending Fort Worth Center
09:12PM 34.9744 -97.3681 328° Northwest 248 285 6,800 -1,800 Descending Fort Worth Center
09:13PM 34.9933 -97.3806 332° Northwest 276 318 6,200 -840 Descending Fort Worth Center
09:13PM 35.0350 -97.4111 329° Northwest 252 290 6,000 -240 Descending Fort Worth Center
09:14PM 35.0558 -97.4211 339° North 257 296 6,000  Level Fort Worth Center
09:14PM 35.0975 -97.4517 329° Northwest 256 295 6,000 -540 Level Fort Worth Center
09:15PM 35.1183 -97.4669 329° Northwest 252 290 5,500 -1,500 Descending Fort Worth Center
09:15PM 35.1622 -97.5000 328° Northwest 269 310 4,500 -1,560 Descending Fort Worth Center
09:16PM 35.2164 -97.5406 329° Northwest 272 313 3,200 -1,260 Descending Fort Worth Center
09:17PM 35.2475 -97.5583 335° Northwest 258 297 2,900 -300 Descending Fort Worth Center
09:18PM 35.2997 -97.5917 332° Northwest 244 281 2,800 -420 Descending Fort Worth Center
09:18PM 35.3269 -97.5942 356° North 150 173 2,300 -840 Descending Fort Worth Center
09:19PM 35.3414 -97.5917 North 181 208 2,000 -480 Descending Fort Worth Center
09:21PM 35.4103 -97.6019 353° North 138 159 1,300 -360 Descending Fort Worth Center
09:25PM 35.3931 -97.6008 North  Level Estimated
09:32PM 35.3931 -97.6008 North  Level Estimated